Lamco Airport

Jump to: basic info | weather | comments

Related pages: nearby airports | nearby navaids | notams | map

Basic information (top)

Codes: UCN GLLB
Location: lon 5.867000, lat -10.050000, elev 30 ft / 9 m msl
Status: small_airport
Scheduled airline service: no
Links: Wikipedia Mobile

Weather (top)

Current conditions for Roberts International Airport 29nm (53km) NW (rec'd 2014/08/30 16:00Z):

GLRB 301600Z 22008KT 9000 -TSRA FEW007 BKN013 FEW023 CB 25/24 Q1012 RMK CB-SE/SW/NW TEMPO TSRA

Airport forecast for Roberts International Airport 29nm (53km) NW (rec'd 2014/08/30 12:15Z):

TAF GLRB 301000Z 3012/3118 24012KT 9999 BKN017 
      TEMPO 3014/3019 22009KT 8000 -RA 
      BECMG 3020/3022 00000KT 9999 SCT015 FEW024CB

Latest comments (top)

No comments yet for Lamco Airport

More... (top)

See also NOTAMs and nearby airports and navaids, or visit the Lamco Airport page at the main OurAirports website..